Terminal Aerodrome Forecast
Issued by NWS

Home | Current Version | Previous Version | Text Only | Print | Product List | Glossary On
Versions: 1 2 3 4 5 6 7 8 9 10 11 12 13 14 15 16
000
FTUS46 KSEW 190500
TAFCLM
TAF
KCLM 190520Z 1906/2006 26003KT P6SM BKN015 OVC060
     FM191000 24004KT P6SM OVC012
      TEMPO 1910/1914 5SM -SHRA BR
     FM191900 35005KT P6SM BKN025 BKN050
     FM192100 33006KT P6SM SCT035 BKN060
     FM200000 29004KT P6SM SCT060 SCT120
      AMD NOT SKED=

USA.gov is the U.S. government's official web portal to all federal, state and local government web resources and services.